Katmai National Park, AK

6:42 PM AKDT on July 04, 2015 (GMT -0800)
King Salmon | Change Station
CLOSE
Current Station
Airport
Location: King Salmon,
Elevation: 46 ft
Nearby Weather Stations

Elev 46 ft 58.68 °N, 156.66 °W | Updated 48 minutes ago

Mostly Cloudy
Mostly Cloudy
66 °F
Feels Like 66 °F
N
17
Wind Variable Wind from South

Today
High -- | Low -- °F
--% Chance of Precip.
Yesterday
High -- | Low -- °F
Precip. -- in
5:25 AM 11:36 PM
Waning Gibbous, 88% visible
Pressure 29.86 in
Visibility 10.0 miles
Clouds Few 2000 ft
Scattered Clouds 3300 ft
Mostly Cloudy 7000 ft
Dew Point 53 °F
Humidity 63%
Rainfall 0.18 in
Snow Depth Not available.
UV 3 out of 12
Pollen Not available.
Air Quality Not available.
Flu Activity Not available.
METAR PAKN 050154Z 17015KT 10SM FEW020 SCT033 BKN070 19/12 A2985 RMK AO2 SLP109 ACSL T01890117 $

More Conditions Fewer Conditions

Pressure 29.86 in
Visibility 10.0 miles
Clouds Few 2000 ft
Scattered Clouds 3300 ft
Mostly Cloudy 7000 ft
Dew Point 53 °F
Humidity 63%
Rainfall 0.18 in
Snow Depth Not available.
UV 3 out of 12
Pollen Not available.
Air Quality Not available.
Flu Activity Not available.
METAR PAKN 050154Z 17015KT 10SM FEW020 SCT033 BKN070 19/12 A2985 RMK AO2 SLP109 ACSL T01890117 $

More Conditions Fewer Conditions

10-Day Weather Forecast

Almanac

Astronomy

Jul. 04, 2015 Rise Set
Actual Time 5:25 AM AKDT 11:36 PM AKDT
Civil Twilight 4:07 AM AKDT 12:53 AM AKDT
Nautical Twilight Sun does not rise Sun does not rise
Astronomical Twilight Sun does not rise Sun does not rise
Moon 12:04 AM AKDT (7/4) 9:28 AM AKDT (7/4)
Length of Visible Light 20h 45m
Length of Day
18h 10m
Tomorrow will be 2m 6s shorter.
Waning Gibbous, 88% of the Moon is Illuminated
Today
Waning Gibbous
Jul 8
Last Quarter
Jul 15
New
Jul 24
First Quarter
Jul 31
Full

Today's Extremes

State Highs State Lows

Community

WunderPhotos

Upload Photos

1,835,172 photos uploaded!

Nearby

Snow Depth

Station Depth Elevation
Port Graham 0 in 300 ft
MF Bradley River 14 in 2300 ft
Nuka Glacier 1 in 1250 ft
Cooper Lake 4 in 1200 ft
Grouse Creek Divide 0 in 700 ft

Earthquake Activity

City Distance Mag. Time & Date
No recent earthquake activity has been reported nearby.
Minimum magnitude displayed is 2.5.

Coastal Water Temperatures

Place Temperature
No Stations Reporting

Nearby Weather Stations